Terminal Aerodrome Forecast
Issued by NWS

Home | Current Version | Previous Version | Text Only | Print | Product List | Glossary On
Versions: 1 2 3 4 5 6 7 8 9 10 11 12 13 14
000
FTUS46 KHNX 050520
TAFMCE
TAF
KMCE 050520Z 0506/0606 31004KT 4SM BR SKC
     FM051200 VRB02KT 2SM BR SCT250
     FM051900 32005KT 6SM HZ BKN250=

USA.gov is the U.S. government's official web portal to all federal, state and local government web resources and services.